sensor_id;sensor_type;location;lat;lon;timestamp;P1;durP1;ratioP1;P2;durP2;ratioP2
77202;SDS011;66327;50.096;8.498;2024-02-28T00:02:19;12.77;;;5.75;;
77202;SDS011;66327;50.096;8.498;2024-02-28T00:04:45;16.60;;;6.80;;
77202;SDS011;66327;50.096;8.498;2024-02-28T00:07:11;13.43;;;5.97;;
77202;SDS011;66327;50.096;8.498;2024-02-28T00:09:38;14.48;;;6.60;;
77202;SDS011;66327;50.096;8.498;2024-02-28T00:12:04;16.58;;;7.20;;
77202;SDS011;66327;50.096;8.498;2024-02-28T00:14:31;16.13;;;7.18;;
77202;SDS011;66327;50.096;8.498;2024-02-28T00:16:57;15.27;;;6.82;;
77202;SDS011;66327;50.096;8.498;2024-02-28T00:19:24;13.75;;;7.00;;
77202;SDS011;66327;50.096;8.498;2024-02-28T00:21:51;15.02;;;6.88;;
77202;SDS011;66327;50.096;8.498;2024-02-28T00:24:17;11.93;;;5.68;;
77202;SDS011;66327;50.096;8.498;2024-02-28T00:26:44;11.13;;;5.65;;
77202;SDS011;66327;50.096;8.498;2024-02-28T00:29:10;12.05;;;6.25;;
77202;SDS011;66327;50.096;8.498;2024-02-28T00:31:37;10.38;;;5.47;;
77202;SDS011;66327;50.096;8.498;2024-02-28T00:34:03;12.27;;;6.13;;
77202;SDS011;66327;50.096;8.498;2024-02-28T00:36:29;14.00;;;6.00;;
77202;SDS011;66327;50.096;8.498;2024-02-28T00:39:13;11.93;;;5.70;;
77202;SDS011;66327;50.096;8.498;2024-02-28T00:41:40;15.07;;;6.95;;
77202;SDS011;66327;50.096;8.498;2024-02-28T00:44:06;11.65;;;5.28;;
77202;SDS011;66327;50.096;8.498;2024-02-28T00:46:32;13.82;;;6.45;;
77202;SDS011;66327;50.096;8.498;2024-02-28T00:48:59;12.10;;;6.10;;
77202;SDS011;66327;50.096;8.498;2024-02-28T00:51:25;13.15;;;6.20;;
77202;SDS011;66327;50.096;8.498;2024-02-28T00:53:51;12.40;;;6.07;;
77202;SDS011;66327;50.096;8.498;2024-02-28T00:56:17;12.80;;;6.43;;
77202;SDS011;66327;50.096;8.498;2024-02-28T00:58:44;6.82;;;4.25;;
77202;SDS011;66327;50.096;8.498;2024-02-28T01:01:10;13.35;;;5.70;;
77202;SDS011;66327;50.096;8.498;2024-02-28T01:03:38;14.88;;;5.68;;
77202;SDS011;66327;50.096;8.498;2024-02-28T01:06:04;13.35;;;6.03;;
77202;SDS011;66327;50.096;8.498;2024-02-28T01:08:30;14.15;;;6.18;;
77202;SDS011;66327;50.096;8.498;2024-02-28T01:10:57;11.60;;;5.38;;
77202;SDS011;66327;50.096;8.498;2024-02-28T01:15:51;10.88;;;5.10;;
77202;SDS011;66327;50.096;8.498;2024-02-28T01:18:20;11.32;;;5.47;;
77202;SDS011;66327;50.096;8.498;2024-02-28T01:20:46;14.38;;;6.40;;
77202;SDS011;66327;50.096;8.498;2024-02-28T01:23:12;13.25;;;6.25;;
77202;SDS011;66327;50.096;8.498;2024-02-28T01:25:39;10.68;;;4.97;;
77202;SDS011;66327;50.096;8.498;2024-02-28T01:28:06;12.48;;;5.60;;
77202;SDS011;66327;50.096;8.498;2024-02-28T01:30:32;12.40;;;6.60;;
77202;SDS011;66327;50.096;8.498;2024-02-28T01:32:58;14.55;;;6.07;;
77202;SDS011;66327;50.096;8.498;2024-02-28T01:35:25;14.20;;;6.90;;
77202;SDS011;66327;50.096;8.498;2024-02-28T01:37:51;15.07;;;7.15;;
77202;SDS011;66327;50.096;8.498;2024-02-28T01:40:18;11.10;;;6.13;;
77202;SDS011;66327;50.096;8.498;2024-02-28T01:42:44;18.38;;;7.68;;
77202;SDS011;66327;50.096;8.498;2024-02-28T01:45:12;16.85;;;6.75;;
77202;SDS011;66327;50.096;8.498;2024-02-28T01:47:40;17.08;;;6.38;;
77202;SDS011;66327;50.096;8.498;2024-02-28T01:50:07;17.10;;;7.05;;
77202;SDS011;66327;50.096;8.498;2024-02-28T01:52:33;18.63;;;7.80;;
77202;SDS011;66327;50.096;8.498;2024-02-28T01:55:00;17.45;;;7.13;;
77202;SDS011;66327;50.096;8.498;2024-02-28T01:57:27;12.70;;;6.22;;
77202;SDS011;66327;50.096;8.498;2024-02-28T01:59:53;16.67;;;7.15;;
77202;SDS011;66327;50.096;8.498;2024-02-28T02:02:21;15.98;;;7.30;;
77202;SDS011;66327;50.096;8.498;2024-02-28T02:04:47;16.08;;;7.40;;
77202;SDS011;66327;50.096;8.498;2024-02-28T02:07:14;18.02;;;7.53;;
77202;SDS011;66327;50.096;8.498;2024-02-28T02:09:40;19.65;;;8.10;;
77202;SDS011;66327;50.096;8.498;2024-02-28T02:12:06;19.55;;;8.20;;
77202;SDS011;66327;50.096;8.498;2024-02-28T02:14:33;18.52;;;7.80;;
77202;SDS011;66327;50.096;8.498;2024-02-28T02:17:00;24.42;;;9.02;;
77202;SDS011;66327;50.096;8.498;2024-02-28T02:19:26;14.38;;;7.65;;
77202;SDS011;66327;50.096;8.498;2024-02-28T02:21:53;22.95;;;9.68;;
77202;SDS011;66327;50.096;8.498;2024-02-28T02:24:22;24.65;;;10.55;;
77202;SDS011;66327;50.096;8.498;2024-02-28T02:26:48;19.52;;;7.68;;
77202;SDS011;66327;50.096;8.498;2024-02-28T02:29:17;24.67;;;10.30;;
77202;SDS011;66327;50.096;8.498;2024-02-28T02:31:43;25.88;;;10.68;;
77202;SDS011;66327;50.096;8.498;2024-02-28T02:34:10;23.85;;;8.52;;
77202;SDS011;66327;50.096;8.498;2024-02-28T02:36:36;21.35;;;10.15;;
77202;SDS011;66327;50.096;8.498;2024-02-28T02:39:02;23.33;;;9.23;;
77202;SDS011;66327;50.096;8.498;2024-02-28T02:41:29;27.45;;;10.32;;
77202;SDS011;66327;50.096;8.498;2024-02-28T02:43:55;28.33;;;10.25;;
77202;SDS011;66327;50.096;8.498;2024-02-28T02:46:23;26.25;;;10.50;;
77202;SDS011;66327;50.096;8.498;2024-02-28T02:48:49;19.15;;;8.85;;
77202;SDS011;66327;50.096;8.498;2024-02-28T02:51:16;25.75;;;9.95;;
77202;SDS011;66327;50.096;8.498;2024-02-28T02:53:43;24.98;;;9.30;;
77202;SDS011;66327;50.096;8.498;2024-02-28T02:56:10;25.77;;;9.85;;
77202;SDS011;66327;50.096;8.498;2024-02-28T02:58:37;31.77;;;12.20;;
77202;SDS011;66327;50.096;8.498;2024-02-28T03:01:03;28.75;;;12.55;;
77202;SDS011;66327;50.096;8.498;2024-02-28T03:03:29;23.92;;;10.00;;
77202;SDS011;66327;50.096;8.498;2024-02-28T03:05:57;22.45;;;9.65;;
77202;SDS011;66327;50.096;8.498;2024-02-28T03:08:23;25.27;;;10.10;;
77202;SDS011;66327;50.096;8.498;2024-02-28T03:10:50;24.42;;;9.30;;
77202;SDS011;66327;50.096;8.498;2024-02-28T03:13:16;24.35;;;10.13;;
77202;SDS011;66327;50.096;8.498;2024-02-28T03:15:43;25.60;;;10.95;;
77202;SDS011;66327;50.096;8.498;2024-02-28T03:18:09;28.05;;;11.15;;
77202;SDS011;66327;50.096;8.498;2024-02-28T03:20:36;24.23;;;10.43;;
77202;SDS011;66327;50.096;8.498;2024-02-28T03:23:05;30.58;;;12.13;;
77202;SDS011;66327;50.096;8.498;2024-02-28T03:25:34;28.23;;;10.85;;
77202;SDS011;66327;50.096;8.498;2024-02-28T03:28:01;26.92;;;10.80;;
77202;SDS011;66327;50.096;8.498;2024-02-28T03:30:27;35.58;;;10.40;;
77202;SDS011;66327;50.096;8.498;2024-02-28T03:32:53;23.58;;;10.35;;
77202;SDS011;66327;50.096;8.498;2024-02-28T03:35:20;25.75;;;11.30;;
77202;SDS011;66327;50.096;8.498;2024-02-28T03:37:46;24.58;;;10.23;;
77202;SDS011;66327;50.096;8.498;2024-02-28T03:40:12;26.38;;;11.25;;
77202;SDS011;66327;50.096;8.498;2024-02-28T03:42:38;23.70;;;10.75;;
77202;SDS011;66327;50.096;8.498;2024-02-28T03:45:05;28.17;;;10.90;;
77202;SDS011;66327;50.096;8.498;2024-02-28T03:47:32;21.67;;;8.48;;
77202;SDS011;66327;50.096;8.498;2024-02-28T03:49:58;27.35;;;9.98;;
77202;SDS011;66327;50.096;8.498;2024-02-28T03:52:25;22.77;;;9.63;;
77202;SDS011;66327;50.096;8.498;2024-02-28T03:54:51;25.70;;;10.05;;
77202;SDS011;66327;50.096;8.498;2024-02-28T03:57:18;29.83;;;11.25;;
77202;SDS011;66327;50.096;8.498;2024-02-28T03:59:44;26.00;;;10.68;;
77202;SDS011;66327;50.096;8.498;2024-02-28T04:02:10;25.33;;;10.98;;
77202;SDS011;66327;50.096;8.498;2024-02-28T04:04:37;23.75;;;8.55;;
77202;SDS011;66327;50.096;8.498;2024-02-28T04:07:03;25.92;;;8.95;;
77202;SDS011;66327;50.096;8.498;2024-02-28T04:09:29;23.60;;;10.30;;
77202;SDS011;66327;50.096;8.498;2024-02-28T04:11:55;24.42;;;11.05;;
77202;SDS011;66327;50.096;8.498;2024-02-28T04:14:22;25.98;;;10.77;;
77202;SDS011;66327;50.096;8.498;2024-02-28T04:16:48;23.83;;;9.60;;
77202;SDS011;66327;50.096;8.498;2024-02-28T04:19:16;26.58;;;10.55;;
77202;SDS011;66327;50.096;8.498;2024-02-28T04:21:42;23.08;;;10.30;;
77202;SDS011;66327;50.096;8.498;2024-02-28T04:24:09;32.22;;;11.48;;
77202;SDS011;66327;50.096;8.498;2024-02-28T04:26:40;32.25;;;12.18;;
77202;SDS011;66327;50.096;8.498;2024-02-28T04:29:06;25.50;;;9.88;;
77202;SDS011;66327;50.096;8.498;2024-02-28T04:31:39;28.77;;;10.65;;
77202;SDS011;66327;50.096;8.498;2024-02-28T04:34:06;27.67;;;10.73;;
77202;SDS011;66327;50.096;8.498;2024-02-28T04:36:33;31.77;;;11.82;;
77202;SDS011;66327;50.096;8.498;2024-02-28T04:38:59;33.38;;;10.80;;
77202;SDS011;66327;50.096;8.498;2024-02-28T04:41:29;24.23;;;8.88;;
77202;SDS011;66327;50.096;8.498;2024-02-28T04:43:55;25.83;;;10.23;;
77202;SDS011;66327;50.096;8.498;2024-02-28T04:46:22;21.52;;;9.52;;
77202;SDS011;66327;50.096;8.498;2024-02-28T04:48:48;31.25;;;9.80;;
77202;SDS011;66327;50.096;8.498;2024-02-28T04:51:15;30.80;;;9.77;;
77202;SDS011;66327;50.096;8.498;2024-02-28T04:53:41;25.35;;;9.35;;
77202;SDS011;66327;50.096;8.498;2024-02-28T04:56:08;23.55;;;9.57;;
77202;SDS011;66327;50.096;8.498;2024-02-28T04:58:35;23.80;;;8.65;;
77202;SDS011;66327;50.096;8.498;2024-02-28T05:01:04;28.73;;;11.35;;
77202;SDS011;66327;50.096;8.498;2024-02-28T05:03:30;21.88;;;9.45;;
77202;SDS011;66327;50.096;8.498;2024-02-28T05:05:56;23.63;;;9.85;;
77202;SDS011;66327;50.096;8.498;2024-02-28T05:08:23;28.02;;;10.82;;
77202;SDS011;66327;50.096;8.498;2024-02-28T05:10:49;28.30;;;10.85;;
77202;SDS011;66327;50.096;8.498;2024-02-28T05:13:16;27.63;;;10.23;;
77202;SDS011;66327;50.096;8.498;2024-02-28T05:15:42;24.35;;;8.65;;
77202;SDS011;66327;50.096;8.498;2024-02-28T05:18:09;33.03;;;11.43;;
77202;SDS011;66327;50.096;8.498;2024-02-28T05:20:35;19.23;;;8.63;;
77202;SDS011;66327;50.096;8.498;2024-02-28T05:23:02;25.63;;;9.93;;
77202;SDS011;66327;50.096;8.498;2024-02-28T05:25:28;22.50;;;9.27;;
77202;SDS011;66327;50.096;8.498;2024-02-28T05:27:55;25.40;;;8.65;;
77202;SDS011;66327;50.096;8.498;2024-02-28T05:30:22;25.42;;;10.25;;
77202;SDS011;66327;50.096;8.498;2024-02-28T05:32:48;30.83;;;10.15;;
77202;SDS011;66327;50.096;8.498;2024-02-28T05:35:15;23.73;;;8.55;;
77202;SDS011;66327;50.096;8.498;2024-02-28T05:37:41;23.48;;;9.07;;
77202;SDS011;66327;50.096;8.498;2024-02-28T05:40:08;31.83;;;10.82;;
77202;SDS011;66327;50.096;8.498;2024-02-28T05:42:35;22.73;;;8.95;;
77202;SDS011;66327;50.096;8.498;2024-02-28T05:45:01;21.75;;;8.35;;
77202;SDS011;66327;50.096;8.498;2024-02-28T05:47:28;24.13;;;8.73;;
77202;SDS011;66327;50.096;8.498;2024-02-28T05:49:55;27.05;;;9.65;;
77202;SDS011;66327;50.096;8.498;2024-02-28T05:52:24;25.52;;;9.50;;
77202;SDS011;66327;50.096;8.498;2024-02-28T05:54:51;23.65;;;8.75;;
77202;SDS011;66327;50.096;8.498;2024-02-28T05:57:17;24.35;;;9.15;;
77202;SDS011;66327;50.096;8.498;2024-02-28T05:59:46;22.80;;;8.75;;
77202;SDS011;66327;50.096;8.498;2024-02-28T06:02:12;16.17;;;7.70;;
77202;SDS011;66327;50.096;8.498;2024-02-28T06:04:39;17.50;;;8.55;;
77202;SDS011;66327;50.096;8.498;2024-02-28T06:07:05;22.52;;;8.35;;
77202;SDS011;66327;50.096;8.498;2024-02-28T06:09:32;29.90;;;10.25;;
77202;SDS011;66327;50.096;8.498;2024-02-28T06:11:58;20.55;;;9.02;;
77202;SDS011;66327;50.096;8.498;2024-02-28T06:14:26;22.85;;;9.63;;
77202;SDS011;66327;50.096;8.498;2024-02-28T06:16:52;21.92;;;8.25;;
77202;SDS011;66327;50.096;8.498;2024-02-28T06:19:18;24.80;;;9.25;;
77202;SDS011;66327;50.096;8.498;2024-02-28T06:21:45;19.17;;;8.30;;
77202;SDS011;66327;50.096;8.498;2024-02-28T06:24:11;24.60;;;9.25;;
77202;SDS011;66327;50.096;8.498;2024-02-28T06:26:38;26.63;;;9.13;;
77202;SDS011;66327;50.096;8.498;2024-02-28T06:29:04;30.42;;;10.27;;
77202;SDS011;66327;50.096;8.498;2024-02-28T06:33:58;22.92;;;8.20;;
77202;SDS011;66327;50.096;8.498;2024-02-28T06:36:25;29.42;;;10.18;;
77202;SDS011;66327;50.096;8.498;2024-02-28T06:38:51;31.35;;;10.95;;
77202;SDS011;66327;50.096;8.498;2024-02-28T06:41:18;25.23;;;8.23;;
77202;SDS011;66327;50.096;8.498;2024-02-28T06:43:44;22.17;;;9.07;;
77202;SDS011;66327;50.096;8.498;2024-02-28T06:46:12;23.67;;;8.98;;
77202;SDS011;66327;50.096;8.498;2024-02-28T06:48:39;25.95;;;9.27;;
77202;SDS011;66327;50.096;8.498;2024-02-28T06:51:05;24.02;;;8.60;;
77202;SDS011;66327;50.096;8.498;2024-02-28T06:53:31;24.02;;;9.18;;
77202;SDS011;66327;50.096;8.498;2024-02-28T06:55:58;20.42;;;7.45;;
77202;SDS011;66327;50.096;8.498;2024-02-28T06:58:24;23.08;;;9.20;;
77202;SDS011;66327;50.096;8.498;2024-02-28T07:00:51;25.20;;;8.63;;
77202;SDS011;66327;50.096;8.498;2024-02-28T07:03:21;27.38;;;9.43;;
77202;SDS011;66327;50.096;8.498;2024-02-28T07:05:47;22.85;;;9.15;;
77202;SDS011;66327;50.096;8.498;2024-02-28T07:08:14;23.33;;;7.95;;
77202;SDS011;66327;50.096;8.498;2024-02-28T07:10:40;19.77;;;8.18;;
77202;SDS011;66327;50.096;8.498;2024-02-28T07:13:10;24.15;;;7.80;;
77202;SDS011;66327;50.096;8.498;2024-02-28T07:15:36;20.42;;;8.45;;
77202;SDS011;66327;50.096;8.498;2024-02-28T07:20:31;23.48;;;8.70;;
77202;SDS011;66327;50.096;8.498;2024-02-28T07:22:57;21.48;;;8.75;;
77202;SDS011;66327;50.096;8.498;2024-02-28T07:25:23;25.88;;;9.80;;
77202;SDS011;66327;50.096;8.498;2024-02-28T07:27:50;21.77;;;7.97;;
77202;SDS011;66327;50.096;8.498;2024-02-28T07:30:16;23.70;;;8.68;;
77202;SDS011;66327;50.096;8.498;2024-02-28T07:32:42;22.15;;;8.63;;
77202;SDS011;66327;50.096;8.498;2024-02-28T07:35:09;23.88;;;8.60;;
77202;SDS011;66327;50.096;8.498;2024-02-28T07:37:35;23.40;;;8.50;;
77202;SDS011;66327;50.096;8.498;2024-02-28T07:40:02;24.13;;;8.50;;
77202;SDS011;66327;50.096;8.498;2024-02-28T07:42:29;24.00;;;8.85;;
77202;SDS011;66327;50.096;8.498;2024-02-28T07:44:55;23.05;;;8.85;;
77202;SDS011;66327;50.096;8.498;2024-02-28T07:47:23;25.52;;;8.35;;
77202;SDS011;66327;50.096;8.498;2024-02-28T07:49:50;23.30;;;7.95;;
77202;SDS011;66327;50.096;8.498;2024-02-28T07:52:16;17.00;;;7.47;;
77202;SDS011;66327;50.096;8.498;2024-02-28T07:54:43;16.70;;;7.20;;
77202;SDS011;66327;50.096;8.498;2024-02-28T07:57:09;20.85;;;8.05;;
77202;SDS011;66327;50.096;8.498;2024-02-28T07:59:39;18.42;;;7.30;;
77202;SDS011;66327;50.096;8.498;2024-02-28T08:02:07;17.95;;;7.30;;
77202;SDS011;66327;50.096;8.498;2024-02-28T08:04:33;20.13;;;8.20;;
77202;SDS011;66327;50.096;8.498;2024-02-28T08:07:00;19.77;;;7.85;;
77202;SDS011;66327;50.096;8.498;2024-02-28T08:09:26;18.17;;;7.25;;
77202;SDS011;66327;50.096;8.498;2024-02-28T08:11:53;21.27;;;7.95;;
77202;SDS011;66327;50.096;8.498;2024-02-28T08:14:19;21.23;;;8.57;;
77202;SDS011;66327;50.096;8.498;2024-02-28T08:16:46;17.60;;;7.75;;
77202;SDS011;66327;50.096;8.498;2024-02-28T08:19:13;23.05;;;8.50;;
77202;SDS011;66327;50.096;8.498;2024-02-28T08:21:39;18.25;;;8.52;;
77202;SDS011;66327;50.096;8.498;2024-02-28T08:24:07;21.42;;;8.45;;
77202;SDS011;66327;50.096;8.498;2024-02-28T08:26:33;19.90;;;9.27;;
77202;SDS011;66327;50.096;8.498;2024-02-28T08:29:00;21.98;;;8.95;;
77202;SDS011;66327;50.096;8.498;2024-02-28T08:31:27;24.17;;;8.30;;
77202;SDS011;66327;50.096;8.498;2024-02-28T08:33:54;19.40;;;8.38;;
77202;SDS011;66327;50.096;8.498;2024-02-28T08:36:21;18.67;;;8.57;;
77202;SDS011;66327;50.096;8.498;2024-02-28T08:38:48;18.58;;;8.10;;
77202;SDS011;66327;50.096;8.498;2024-02-28T08:41:14;25.02;;;8.77;;
77202;SDS011;66327;50.096;8.498;2024-02-28T08:43:40;24.80;;;10.35;;
77202;SDS011;66327;50.096;8.498;2024-02-28T08:46:07;25.63;;;9.43;;
77202;SDS011;66327;50.096;8.498;2024-02-28T08:48:34;27.42;;;10.45;;
77202;SDS011;66327;50.096;8.498;2024-02-28T08:51:00;22.85;;;9.10;;
77202;SDS011;66327;50.096;8.498;2024-02-28T08:53:26;19.63;;;8.35;;
77202;SDS011;66327;50.096;8.498;2024-02-28T08:55:53;23.25;;;8.40;;
77202;SDS011;66327;50.096;8.498;2024-02-28T08:58:19;16.38;;;6.72;;
77202;SDS011;66327;50.096;8.498;2024-02-28T09:00:46;23.65;;;8.80;;
77202;SDS011;66327;50.096;8.498;2024-02-28T09:03:12;23.20;;;9.25;;
77202;SDS011;66327;50.096;8.498;2024-02-28T09:05:39;23.48;;;9.30;;
77202;SDS011;66327;50.096;8.498;2024-02-28T09:08:05;18.73;;;8.77;;
77202;SDS011;66327;50.096;8.498;2024-02-28T09:10:31;20.50;;;9.13;;
77202;SDS011;66327;50.096;8.498;2024-02-28T09:13:00;22.50;;;8.82;;
77202;SDS011;66327;50.096;8.498;2024-02-28T09:15:26;25.30;;;10.35;;
77202;SDS011;66327;50.096;8.498;2024-02-28T09:17:53;26.25;;;10.48;;
77202;SDS011;66327;50.096;8.498;2024-02-28T09:20:19;21.45;;;8.63;;
77202;SDS011;66327;50.096;8.498;2024-02-28T09:22:46;18.45;;;8.38;;
77202;SDS011;66327;50.096;8.498;2024-02-28T09:25:12;25.27;;;10.80;;
77202;SDS011;66327;50.096;8.498;2024-02-28T09:27:38;23.73;;;9.48;;
77202;SDS011;66327;50.096;8.498;2024-02-28T09:30:05;25.48;;;10.88;;
77202;SDS011;66327;50.096;8.498;2024-02-28T09:32:31;20.73;;;8.68;;
77202;SDS011;66327;50.096;8.498;2024-02-28T09:34:58;19.08;;;8.35;;
77202;SDS011;66327;50.096;8.498;2024-02-28T09:37:24;21.45;;;9.43;;
77202;SDS011;66327;50.096;8.498;2024-02-28T09:39:51;25.13;;;9.15;;
77202;SDS011;66327;50.096;8.498;2024-02-28T09:42:17;21.13;;;9.57;;
77202;SDS011;66327;50.096;8.498;2024-02-28T09:44:46;24.48;;;9.82;;
77202;SDS011;66327;50.096;8.498;2024-02-28T09:47:12;20.40;;;9.20;;
77202;SDS011;66327;50.096;8.498;2024-02-28T09:49:39;21.30;;;9.73;;
77202;SDS011;66327;50.096;8.498;2024-02-28T09:52:07;21.48;;;10.65;;
77202;SDS011;66327;50.096;8.498;2024-02-28T09:54:34;14.30;;;6.90;;
77202;SDS011;66327;50.096;8.498;2024-02-28T09:57:00;23.08;;;9.57;;
77202;SDS011;66327;50.096;8.498;2024-02-28T09:59:27;22.08;;;8.98;;
77202;SDS011;66327;50.096;8.498;2024-02-28T10:02:09;24.00;;;9.80;;
77202;SDS011;66327;50.096;8.498;2024-02-28T10:04:36;23.42;;;10.00;;
77202;SDS011;66327;50.096;8.498;2024-02-28T10:07:12;22.40;;;9.60;;
77202;SDS011;66327;50.096;8.498;2024-02-28T10:09:40;18.77;;;8.23;;
77202;SDS011;66327;50.096;8.498;2024-02-28T10:12:06;18.77;;;7.78;;
77202;SDS011;66327;50.096;8.498;2024-02-28T10:14:33;22.92;;;9.45;;
77202;SDS011;66327;50.096;8.498;2024-02-28T10:16:59;18.23;;;8.77;;
77202;SDS011;66327;50.096;8.498;2024-02-28T10:19:26;22.30;;;10.05;;
77202;SDS011;66327;50.096;8.498;2024-02-28T10:21:52;17.00;;;7.93;;
77202;SDS011;66327;50.096;8.498;2024-02-28T10:24:19;19.58;;;9.30;;
77202;SDS011;66327;50.096;8.498;2024-02-28T10:26:47;20.70;;;9.93;;
77202;SDS011;66327;50.096;8.498;2024-02-28T10:29:23;22.50;;;9.50;;
77202;SDS011;66327;50.096;8.498;2024-02-28T10:31:57;21.30;;;9.80;;
77202;SDS011;66327;50.096;8.498;2024-02-28T10:34:23;18.73;;;8.15;;
77202;SDS011;66327;50.096;8.498;2024-02-28T10:36:50;22.30;;;8.52;;
77202;SDS011;66327;50.096;8.498;2024-02-28T10:39:17;22.23;;;9.18;;
77202;SDS011;66327;50.096;8.498;2024-02-28T10:41:44;25.15;;;10.38;;
77202;SDS011;66327;50.096;8.498;2024-02-28T10:44:12;25.13;;;10.52;;
77202;SDS011;66327;50.096;8.498;2024-02-28T10:46:39;23.75;;;9.45;;
77202;SDS011;66327;50.096;8.498;2024-02-28T10:49:06;24.98;;;11.45;;
77202;SDS011;66327;50.096;8.498;2024-02-28T10:51:36;20.70;;;9.07;;
77202;SDS011;66327;50.096;8.498;2024-02-28T10:54:10;21.90;;;8.88;;
77202;SDS011;66327;50.096;8.498;2024-02-28T10:56:41;25.45;;;10.32;;
77202;SDS011;66327;50.096;8.498;2024-02-28T10:59:09;25.27;;;10.68;;
77202;SDS011;66327;50.096;8.498;2024-02-28T11:01:38;25.38;;;10.07;;
77202;SDS011;66327;50.096;8.498;2024-02-28T11:04:05;25.23;;;11.30;;
77202;SDS011;66327;50.096;8.498;2024-02-28T11:06:31;26.05;;;10.93;;
77202;SDS011;66327;50.096;8.498;2024-02-28T11:08:59;20.38;;;8.88;;
77202;SDS011;66327;50.096;8.498;2024-02-28T11:11:29;24.50;;;9.75;;
77202;SDS011;66327;50.096;8.498;2024-02-28T11:13:56;20.92;;;8.65;;
77202;SDS011;66327;50.096;8.498;2024-02-28T11:16:32;25.58;;;9.20;;
77202;SDS011;66327;50.096;8.498;2024-02-28T11:19:01;20.75;;;10.13;;
77202;SDS011;66327;50.096;8.498;2024-02-28T11:21:33;22.33;;;8.95;;
77202;SDS011;66327;50.096;8.498;2024-02-28T11:24:00;20.40;;;9.35;;
77202;SDS011;66327;50.096;8.498;2024-02-28T11:26:27;21.85;;;9.90;;
77202;SDS011;66327;50.096;8.498;2024-02-28T11:28:57;24.20;;;9.27;;
77202;SDS011;66327;50.096;8.498;2024-02-28T11:31:23;20.92;;;9.20;;
77202;SDS011;66327;50.096;8.498;2024-02-28T11:33:49;23.95;;;10.00;;
77202;SDS011;66327;50.096;8.498;2024-02-28T11:36:17;20.88;;;9.48;;
77202;SDS011;66327;50.096;8.498;2024-02-28T11:38:43;22.35;;;9.75;;
77202;SDS011;66327;50.096;8.498;2024-02-28T11:41:10;21.77;;;9.93;;
77202;SDS011;66327;50.096;8.498;2024-02-28T11:43:36;24.23;;;10.82;;
77202;SDS011;66327;50.096;8.498;2024-02-28T11:46:17;21.00;;;9.73;;
77202;SDS011;66327;50.096;8.498;2024-02-28T11:48:44;20.90;;;9.00;;
77202;SDS011;66327;50.096;8.498;2024-02-28T11:51:10;18.23;;;8.68;;
77202;SDS011;66327;50.096;8.498;2024-02-28T11:53:37;19.52;;;8.32;;
77202;SDS011;66327;50.096;8.498;2024-02-28T11:56:03;20.92;;;9.63;;
77202;SDS011;66327;50.096;8.498;2024-02-28T11:58:29;23.83;;;10.23;;
77202;SDS011;66327;50.096;8.498;2024-02-28T12:00:56;16.60;;;6.38;;
77202;SDS011;66327;50.096;8.498;2024-02-28T12:03:23;21.10;;;9.60;;
77202;SDS011;66327;50.096;8.498;2024-02-28T12:05:49;20.88;;;9.40;;
77202;SDS011;66327;50.096;8.498;2024-02-28T12:08:17;20.67;;;9.40;;
77202;SDS011;66327;50.096;8.498;2024-02-28T12:10:45;21.65;;;10.10;;
77202;SDS011;66327;50.096;8.498;2024-02-28T12:13:15;19.83;;;8.65;;
77202;SDS011;66327;50.096;8.498;2024-02-28T12:15:41;21.00;;;9.85;;
77202;SDS011;66327;50.096;8.498;2024-02-28T12:18:08;22.65;;;10.75;;
77202;SDS011;66327;50.096;8.498;2024-02-28T12:20:36;17.95;;;9.68;;
77202;SDS011;66327;50.096;8.498;2024-02-28T12:23:05;20.40;;;8.95;;
77202;SDS011;66327;50.096;8.498;2024-02-28T12:25:31;20.00;;;9.13;;
77202;SDS011;66327;50.096;8.498;2024-02-28T12:27:58;24.92;;;10.45;;
77202;SDS011;66327;50.096;8.498;2024-02-28T12:30:24;20.52;;;9.15;;
77202;SDS011;66327;50.096;8.498;2024-02-28T12:32:50;22.50;;;9.75;;
77202;SDS011;66327;50.096;8.498;2024-02-28T12:35:17;19.38;;;9.15;;
77202;SDS011;66327;50.096;8.498;2024-02-28T12:37:44;23.42;;;9.65;;
77202;SDS011;66327;50.096;8.498;2024-02-28T12:40:10;21.40;;;10.18;;
77202;SDS011;66327;50.096;8.498;2024-02-28T12:42:37;21.38;;;9.70;;
77202;SDS011;66327;50.096;8.498;2024-02-28T12:45:06;21.08;;;9.13;;
77202;SDS011;66327;50.096;8.498;2024-02-28T12:47:32;18.92;;;8.88;;
77202;SDS011;66327;50.096;8.498;2024-02-28T12:49:58;20.40;;;10.00;;
77202;SDS011;66327;50.096;8.498;2024-02-28T12:52:25;18.73;;;8.40;;
77202;SDS011;66327;50.096;8.498;2024-02-28T12:54:51;19.88;;;9.20;;
77202;SDS011;66327;50.096;8.498;2024-02-28T12:57:17;22.33;;;9.32;;
77202;SDS011;66327;50.096;8.498;2024-02-28T12:59:44;19.60;;;9.13;;
77202;SDS011;66327;50.096;8.498;2024-02-28T13:02:12;18.17;;;8.95;;
77202;SDS011;66327;50.096;8.498;2024-02-28T13:04:39;17.50;;;8.18;;
77202;SDS011;66327;50.096;8.498;2024-02-28T13:07:05;17.20;;;7.43;;
77202;SDS011;66327;50.096;8.498;2024-02-28T13:09:31;19.35;;;8.18;;
77202;SDS011;66327;50.096;8.498;2024-02-28T13:11:58;15.18;;;7.25;;
77202;SDS011;66327;50.096;8.498;2024-02-28T13:14:24;19.83;;;8.38;;
77202;SDS011;66327;50.096;8.498;2024-02-28T13:16:51;17.08;;;7.05;;
77202;SDS011;66327;50.096;8.498;2024-02-28T13:19:20;19.42;;;8.43;;
77202;SDS011;66327;50.096;8.498;2024-02-28T13:21:46;17.20;;;8.13;;
77202;SDS011;66327;50.096;8.498;2024-02-28T13:24:13;15.60;;;7.38;;
77202;SDS011;66327;50.096;8.498;2024-02-28T13:26:41;15.55;;;7.45;;
77202;SDS011;66327;50.096;8.498;2024-02-28T13:29:07;15.73;;;7.20;;
77202;SDS011;66327;50.096;8.498;2024-02-28T13:31:35;13.85;;;7.18;;
77202;SDS011;66327;50.096;8.498;2024-02-28T13:34:01;17.20;;;7.63;;
77202;SDS011;66327;50.096;8.498;2024-02-28T13:36:29;17.70;;;7.50;;
77202;SDS011;66327;50.096;8.498;2024-02-28T13:38:58;13.23;;;6.47;;
77202;SDS011;66327;50.096;8.498;2024-02-28T13:41:24;14.25;;;6.57;;
77202;SDS011;66327;50.096;8.498;2024-02-28T13:43:51;13.93;;;6.95;;
77202;SDS011;66327;50.096;8.498;2024-02-28T13:46:17;14.25;;;6.30;;
77202;SDS011;66327;50.096;8.498;2024-02-28T13:48:45;12.88;;;6.07;;
77202;SDS011;66327;50.096;8.498;2024-02-28T13:51:12;14.02;;;6.57;;
77202;SDS011;66327;50.096;8.498;2024-02-28T13:53:38;18.35;;;7.95;;
77202;SDS011;66327;50.096;8.498;2024-02-28T13:56:05;15.15;;;6.55;;
77202;SDS011;66327;50.096;8.498;2024-02-28T13:58:32;13.25;;;6.60;;
77202;SDS011;66327;50.096;8.498;2024-02-28T14:01:08;17.17;;;6.95;;
77202;SDS011;66327;50.096;8.498;2024-02-28T14:03:35;17.08;;;7.32;;
77202;SDS011;66327;50.096;8.498;2024-02-28T14:06:05;19.95;;;7.68;;
77202;SDS011;66327;50.096;8.498;2024-02-28T14:08:32;17.65;;;7.28;;
77202;SDS011;66327;50.096;8.498;2024-02-28T14:11:01;15.45;;;7.20;;
77202;SDS011;66327;50.096;8.498;2024-02-28T14:13:27;14.27;;;6.22;;
77202;SDS011;66327;50.096;8.498;2024-02-28T14:15:54;15.10;;;7.72;;
77202;SDS011;66327;50.096;8.498;2024-02-28T14:18:21;13.95;;;7.13;;
77202;SDS011;66327;50.096;8.498;2024-02-28T14:20:47;13.80;;;6.45;;
77202;SDS011;66327;50.096;8.498;2024-02-28T14:23:13;14.43;;;6.55;;
77202;SDS011;66327;50.096;8.498;2024-02-28T14:25:40;17.35;;;7.20;;
77202;SDS011;66327;50.096;8.498;2024-02-28T14:28:07;18.15;;;7.30;;
77202;SDS011;66327;50.096;8.498;2024-02-28T14:30:34;13.77;;;6.95;;
77202;SDS011;66327;50.096;8.498;2024-02-28T14:33:00;16.58;;;7.25;;
77202;SDS011;66327;50.096;8.498;2024-02-28T14:37:54;12.32;;;5.85;;
77202;SDS011;66327;50.096;8.498;2024-02-28T14:40:20;12.43;;;5.93;;